Time;durP1;ratioP1;P1;durP2;ratioP2;P2;SDS_P1;SDS_P2;PMS_P1;PMS_P2;Temp;Humidity;BMP_temperature;BMP_pressure;BME280_temperature;BME280_humidity;BME280_pressure;Samples;Min_cycle;Max_cycle;Signal;HPM_P1;HPM_P2
2021/04/24 17:14:19;;;;;;;22.50;9.07;;;;;;;10.36;47.06;100821.73;116485;1164;27269;-76
2021/04/24 17:16:48;;;;;;;26.60;12.10;;;;;;;10.34;47.10;100818.63;115709;1198;23118;-76
2021/04/24 17:19:20;;;;;;;14.35;4.30;;;;;;;10.33;47.04;100820.64;115768;1202;23115;-76
2021/04/24 17:21:48;;;;;;;10.55;2.70;;;;;;;10.32;47.34;100826.69;115647;1200;23116;-76
2021/04/24 17:24:17;;;;;;;11.00;2.60;;;;;;;10.29;47.28;100824.81;115504;1199;23128;-75
2021/04/24 17:26:46;;;;;;;13.20;3.10;;;;;;;10.27;47.36;100832.88;115556;1200;23120;-76
2021/04/24 17:29:16;;;;;;;199.73;129.40;;;;;;;10.22;47.62;100831.47;115356;1200;26023;-77
2021/04/24 17:31:45;;;;;;;46.53;23.13;;;;;;;10.20;47.63;100841.56;115438;1202;23114;-77
2021/04/24 17:34:14;;;;;;;32.85;17.95;;;;;;;10.14;47.95;100838.58;115465;1200;23138;-77
2021/04/24 17:36:45;;;;;;;21.40;8.45;;;;;;;10.12;48.13;100838.27;115679;1199;23103;-77
2021/04/24 17:39:14;;;;;;;13.27;3.73;;;;;;;10.08;48.43;100832.03;115652;1199;26090;-79
2021/04/24 17:41:43;;;;;;;12.30;3.53;;;;;;;10.05;48.48;100837.77;115656;1199;26403;-78
2021/04/24 17:44:13;;;;;;;24.70;8.45;;;;;;;10.04;48.47;100841.78;115603;1199;23140;-78
2021/04/24 17:46:41;;;;;;;23.00;8.15;;;;;;;10.00;48.38;100844.72;115558;1200;23115;-78
2021/04/24 17:49:10;;;;;;;34.17;14.10;;;;;;;9.96;48.48;100846.09;115500;1199;26158;-78
2021/04/24 17:51:39;;;;;;;38.90;18.90;;;;;;;9.90;48.48;100842.36;115365;1199;25071;-78
2021/04/24 17:54:10;;;;;;;53.17;30.67;;;;;;;9.85;48.52;100840.95;115989;1200;27263;-77
2021/04/24 17:56:42;;;;;;;141.50;82.70;;;;;;;9.78;48.83;100846.83;115391;1200;23112;-78
2021/04/24 17:59:10;;;;;;;89.07;57.87;;;;;;;9.70;48.62;100851.13;115658;1200;23183;-78
2021/04/24 18:01:39;;;;;;;93.37;55.10;;;;;;;9.65;48.58;100851.72;115437;1202;23117;-78
2021/04/24 18:04:09;;;;;;;102.50;65.63;;;;;;;9.59;48.82;100848.76;115296;1199;23341;-78
2021/04/24 18:06:38;;;;;;;77.00;47.50;;;;;;;9.55;48.82;100855.70;115517;1199;23194;-79
2021/04/24 18:09:07;;;;;;;55.90;34.40;;;;;;;9.48;48.96;100851.17;115612;1200;23102;-79
2021/04/24 18:11:36;;;;;;;48.85;26.53;;;;;;;9.42;49.14;100849.43;115627;1199;23123;-80
2021/04/24 18:14:06;;;;;;;120.60;70.15;;;;;;;9.37;49.17;100852.83;115569;1199;24783;-78
2021/04/24 18:16:36;;;;;;;129.43;79.03;;;;;;;9.32;49.08;100847.83;115776;1199;26641;-79
2021/04/24 18:19:05;;;;;;;180.80;107.03;;;;;;;9.28;49.35;100853.55;115898;1202;26220;-79
2021/04/24 18:21:35;;;;;;;120.20;68.30;;;;;;;9.27;49.33;100856.80;115807;1199;24584;-80
2021/04/24 18:24:06;;;;;;;68.40;38.87;;;;;;;9.23;49.47;100856.91;116480;1200;23128;-82
2021/04/24 18:26:35;;;;;;;51.95;28.15;;;;;;;9.21;49.58;100859.38;116458;1197;23115;-82
2021/04/24 18:29:05;;;;;;;67.53;35.73;;;;;;;9.20;49.76;100862.63;116359;1199;23092;-83
2021/04/24 18:31:34;;;;;;;112.15;67.30;;;;;;;9.15;49.95;100865.98;116568;1200;23135;-83
2021/04/24 18:34:03;;;;;;;110.28;65.30;;;;;;;9.14;50.06;100867.23;116514;1199;23134;-82
2021/04/24 18:36:32;;;;;;;66.20;36.43;;;;;;;9.11;49.91;100868.13;116492;1198;23111;-82
2021/04/24 18:39:01;;;;;;;61.50;32.67;;;;;;;9.08;49.94;100866.27;116218;1199;23138;-82
2021/04/24 18:41:29;;;;;;;43.70;20.50;;;;;;;9.03;50.05;100862.05;116627;1199;23003;-81
2021/04/24 18:43:58;;;;;;;37.30;17.37;;;;;;;9.00;50.12;100864.97;116644;1198;23262;-82
2021/04/24 18:46:28;;;;;;;40.50;18.43;;;;;;;8.97;50.37;100863.86;116904;1199;26386;-83
2021/04/24 18:48:58;;;;;;;32.50;14.67;;;;;;;8.92;50.62;100865.21;116731;1199;23327;-83
2021/04/24 18:51:28;;;;;;;28.97;13.33;;;;;;;8.90;50.61;100875.24;117258;1198;23141;-82
2021/04/24 18:53:56;;;;;;;;;;;;;;;8.88;50.82;100875.70;117539;1204;23216;-83
2021/04/24 18:56:26;;;;;;;33.30;12.60;;;;;;;8.84;50.72;100871.48;117565;1199;21579;-84
2021/04/24 18:58:55;;;;;;;66.50;30.57;;;;;;;8.80;50.94;100874.41;117394;1199;23115;-85
2021/04/24 19:01:28;;;;;;;46.00;21.30;;;;;;;8.80;51.00;100873.62;117172;1198;23111;-83
2021/04/24 19:03:58;;;;;;;85.50;41.78;;;;;;;8.78;51.25;100871.30;116996;1199;23102;-83
2021/04/24 19:06:31;;;;;;;100.73;50.73;;;;;;;8.76;51.40;100862.62;117054;1200;23120;-85
2021/04/24 19:09:01;;;;;;;62.10;27.50;;;;;;;8.76;51.31;100870.97;116747;1198;23363;-83
2021/04/24 19:11:32;;;;;;;40.50;17.15;;;;;;;8.77;51.30;100863.41;117175;1198;23122;-84
2021/04/24 19:14:03;;;;;;;28.65;9.75;;;;;;;8.75;51.41;100860.30;117630;1199;23214;-85
2021/04/24 19:16:33;;;;;;;27.80;9.23;;;;;;;8.74;51.37;100862.30;117512;1199;23138;-84
2021/04/24 19:19:07;;;;;;;21.87;5.97;;;;;;;8.72;51.24;100861.97;117644;1198;22956;-85
2021/04/24 19:21:38;;;;;;;23.40;6.95;;;;;;;8.71;51.39;100862.42;117329;1199;25968;-84
2021/04/24 19:24:09;;;;;;;25.17;9.13;;;;;;;8.67;51.56;100865.31;116993;1199;23281;-82
2021/04/24 19:26:37;;;;;;;24.75;8.65;;;;;;;8.66;51.73;100862.98;117050;1198;23239;-83
2021/04/24 19:29:06;;;;;;;27.85;8.45;;;;;;;8.64;51.85;100871.02;117105;1198;23086;-81
2021/04/24 19:31:35;;;;;;;31.45;8.80;;;;;;;8.61;52.10;100864.33;116652;1198;23834;-81
2021/04/24 19:34:08;;;;;;;27.80;9.47;;;;;;;8.58;52.22;100865.25;116297;1200;23148;-81
2021/04/24 19:36:36;;;;;;;;;;;;;;;8.55;52.31;100866.14;116461;1200;23235;-79
2021/04/24 19:39:07;;;;;;;31.13;10.27;;;;;;;8.51;52.12;100859.92;115629;1199;25154;-79
2021/04/24 19:41:36;;;;;;;27.37;10.30;;;;;;;8.50;52.50;100863.95;115960;1199;23146;-79
2021/04/24 19:44:06;;;;;;;29.23;11.00;;;;;;;8.47;52.98;100864.05;116234;1200;26077;-80
2021/04/24 19:46:35;;;;;;;27.15;9.85;;;;;;;8.43;52.40;100864.17;115679;1200;23255;-79
2021/04/24 19:49:05;;;;;;;24.55;9.30;;;;;;;8.40;52.39;100875.44;115566;1199;23699;-79
2021/04/24 19:51:34;;;;;;;26.23;8.97;;;;;;;8.36;52.46;100872.00;115715;1200;23139;-79
2021/04/24 19:54:04;;;;;;;24.27;7.37;;;;;;;8.31;52.60;100867.77;116005;1202;25169;-79
2021/04/24 19:56:35;;;;;;;22.53;7.10;;;;;;;8.25;52.66;100877.09;116244;1202;23217;-79
2021/04/24 19:59:08;;;;;;;24.80;5.80;;;;;;;8.18;52.71;100872.55;116315;1200;23115;-80
2021/04/24 20:01:39;;;;;;;22.10;5.55;;;;;;;8.11;52.86;100864.45;116475;1199;23115;-81
2021/04/24 20:04:10;;;;;;;16.30;4.95;;;;;;;8.06;52.94;100871.34;117428;1199;26255;-82
2021/04/24 20:06:41;;;;;;;20.75;5.70;;;;;;;8.05;52.94;100871.77;116585;1199;23096;-81
2021/04/24 20:09:12;;;;;;;19.23;4.80;;;;;;;8.02;52.91;100869.89;117943;1199;23125;-82
2021/04/24 20:11:41;;;;;;;15.57;4.60;;;;;;;8.01;52.77;100866.33;117527;1198;23128;-81
2021/04/24 20:14:10;;;;;;;19.50;4.10;;;;;;;8.01;52.70;100871.11;117928;1199;23128;-82
2021/04/24 20:16:41;;;;;;;15.80;3.80;;;;;;;8.00;52.49;100866.78;117983;1199;23263;-81
2021/04/24 20:19:11;;;;;;;17.63;3.53;;;;;;;8.00;52.66;100869.56;117765;1198;23114;-82
2021/04/24 20:21:42;;;;;;;15.23;4.15;;;;;;;7.98;52.79;100863.67;117778;1199;23105;-81
2021/04/24 20:24:12;;;;;;;14.60;3.73;;;;;;;7.95;52.82;100864.55;116931;1199;23560;-82
2021/04/24 20:26:42;;;;;;;14.90;3.80;;;;;;;7.93;52.91;100861.44;116773;1199;25968;-80
2021/04/24 20:29:10;;;;;;;14.07;3.97;;;;;;;7.94;53.34;100857.45;116323;1200;23317;-80
2021/04/24 20:31:39;;;;;;;15.60;4.40;;;;;;;7.95;53.68;100858.99;116586;1199;23122;-80
2021/04/24 20:34:09;;;;;;;13.20;3.85;;;;;;;7.97;53.81;100857.33;116387;1199;23573;-80
2021/04/24 20:36:38;;;;;;;15.40;4.23;;;;;;;7.99;53.92;100865.22;116007;1200;23114;-80
2021/04/24 20:39:21;;;;;;;15.75;3.90;;;;;;;8.00;54.13;100869.56;116109;1199;23112;-81
2021/04/24 20:41:49;;;;;;;17.55;4.50;;;;;;;8.01;54.12;100868.33;116258;1200;23114;-80
2021/04/24 20:44:18;;;;;;;21.20;6.30;;;;;;;8.00;54.43;100872.34;115884;1199;27073;-80
2021/04/24 20:46:47;;;;;;;23.80;8.00;;;;;;;7.98;54.40;100872.02;115992;1200;23143;-80
2021/04/24 20:49:17;;;;;;;24.00;8.70;;;;;;;7.93;54.51;100873.34;116389;1200;26002;-80
2021/04/24 20:51:45;;;;;;;23.93;8.33;;;;;;;7.91;54.58;100875.80;115907;1198;26077;-81
2021/04/24 20:54:16;;;;;;;22.13;8.33;;;;;;;7.90;54.78;100870.69;115949;1198;23146;-80
2021/04/24 20:56:49;;;;;;;23.45;8.40;;;;;;;7.86;54.68;100872.80;116346;1200;23119;-80
2021/04/24 20:59:17;;;;;;;22.23;5.63;;;;;;;7.82;54.75;100869.36;115929;1199;23106;-80
2021/04/24 21:01:49;;;;;;;22.23;7.00;;;;;;;7.78;54.92;100868.70;115951;1199;26041;-80
2021/04/24 21:04:20;;;;;;;21.60;6.20;;;;;;;7.75;55.11;100867.58;116023;1199;23150;-80
2021/04/24 21:06:50;;;;;;;;;;;;;;;7.74;55.20;100870.81;116481;1205;23122;-79
2021/04/24 21:09:18;;;;;;;;;;;;;;;7.69;55.15;100868.57;116044;1205;21686;-79
2021/04/24 21:11:49;;;;;;;17.93;5.83;;;;;;;7.66;55.33;100861.11;115697;1200;25802;-80
2021/04/24 21:14:18;;;;;;;15.85;3.95;;;;;;;7.62;55.31;100868.78;115589;1199;26214;-79
2021/04/24 21:16:47;;;;;;;18.90;4.80;;;;;;;7.59;55.58;100864.13;115462;1200;24619;-79
2021/04/24 21:19:15;;;;;;;15.80;4.90;;;;;;;7.55;55.59;100874.57;115369;1200;23118;-78
2021/04/24 21:21:44;;;;;;;18.67;5.33;;;;;;;7.52;55.33;100873.45;115459;1199;23127;-78
2021/04/24 21:24:13;;;;;;;26.40;7.60;;;;;;;7.50;55.36;100873.11;115517;1199;23286;-79
2021/04/24 21:26:42;;;;;;;23.83;7.27;;;;;;;7.48;55.27;100861.67;115460;1200;27275;-78
2021/04/24 21:29:10;;;;;;;23.20;8.30;;;;;;;7.46;55.41;100860.55;115443;1202;23207;-78
2021/04/24 21:31:39;;;;;;;28.10;8.17;;;;;;;7.46;55.23;100866.10;115526;1200;23214;-79
2021/04/24 21:34:08;;;;;;;22.05;7.30;;;;;;;7.43;55.16;100867.00;115411;1200;24837;-79
2021/04/24 21:36:37;;;;;;;22.40;8.20;;;;;;;7.41;55.17;100866.67;115588;1199;23136;-79
2021/04/24 21:39:08;;;;;;;28.23;8.00;;;;;;;7.38;55.33;100864.77;115601;1200;23127;-78
2021/04/24 21:41:37;;;;;;;22.90;6.80;;;;;;;7.33;55.54;100866.08;115615;1200;26268;-79
2021/04/24 21:44:06;;;;;;;24.60;8.25;;;;;;;7.29;55.70;100860.64;116171;1200;23115;-80
2021/04/24 21:46:41;;;;;;;25.80;7.27;;;;;;;7.27;55.64;100870.63;115710;1199;23127;-78
2021/04/24 21:49:12;;;;;;;22.33;7.47;;;;;;;7.26;55.84;100867.06;115649;1199;23695;-79
2021/04/24 21:51:46;;;;;;;19.30;6.10;;;;;;;7.26;55.77;100867.06;115648;1200;23115;-79
2021/04/24 21:54:24;;;;;;;19.70;5.90;;;;;;;7.26;55.85;100866.31;115700;1200;23234;-78
2021/04/24 21:57:04;;;;;;;18.57;5.17;;;;;;;7.23;55.88;100861.63;115917;1200;24574;-79
2021/04/24 21:59:33;;;;;;;22.65;6.25;;;;;;;7.22;55.97;100862.86;115809;1198;26147;-78
2021/04/24 22:02:02;;;;;;;20.40;6.10;;;;;;;7.20;56.00;100859.74;115846;1200;23209;-79
2021/04/24 22:04:31;;;;;;;20.25;6.50;;;;;;;7.18;56.01;100865.72;116067;1199;23108;-80
2021/04/24 22:07:00;;;;;;;22.90;7.85;;;;;;;7.17;55.83;100860.61;115739;1199;23138;-80
2021/04/24 22:09:30;;;;;;;24.00;8.25;;;;;;;7.15;55.69;100854.72;115818;1199;23455;-80
2021/04/24 22:11:58;;;;;;;23.60;7.43;;;;;;;7.13;55.64;100857.16;115772;1202;23115;-79
2021/04/24 22:14:27;;;;;;;25.45;7.80;;;;;;;7.11;55.58;100860.39;115481;1199;23591;-81
2021/04/24 22:16:56;;;;;;;21.53;6.67;;;;;;;7.08;55.69;100866.80;115531;1199;23152;-79
2021/04/24 22:19:24;;;;;;;21.95;6.35;;;;;;;7.07;55.75;100867.25;115504;1200;23246;-80
2021/04/24 22:21:53;;;;;;;20.30;6.30;;;;;;;7.06;56.05;100860.91;115691;1200;23150;-80
2021/04/24 22:24:21;;;;;;;18.80;5.90;;;;;;;7.04;56.21;100855.02;115882;1199;23114;-80
2021/04/24 22:26:50;;;;;;;20.40;5.70;;;;;;;7.01;56.14;100853.14;115789;1200;23112;-80
2021/04/24 22:29:19;;;;;;;20.00;5.70;;;;;;;6.96;56.52;100862.00;115685;1200;23111;-78
2021/04/24 22:31:48;;;;;;;17.60;4.80;;;;;;;6.90;56.63;100854.64;116105;1199;23157;-80
2021/04/24 22:34:17;;;;;;;18.20;5.20;;;;;;;6.85;56.75;100853.19;115694;1199;23270;-79
2021/04/24 22:36:46;;;;;;;19.50;5.40;;;;;;;6.84;56.88;100859.96;115703;1200;26054;-79
2021/04/24 22:39:14;;;;;;;20.70;5.45;;;;;;;6.83;56.96;100852.84;116169;1198;23114;-79
2021/04/24 22:41:43;;;;;;;19.63;5.20;;;;;;;6.83;57.05;100855.62;115598;1200;23183;-79
2021/04/24 22:44:12;;;;;;;17.10;4.30;;;;;;;6.84;56.72;100857.19;115835;1199;23136;-80
2021/04/24 22:46:40;;;;;;;15.83;4.50;;;;;;;6.85;56.76;100860.75;115736;1198;23207;-80
2021/04/24 22:49:11;;;;;;;21.93;5.30;;;;;;;6.85;56.90;100855.20;115677;1199;23465;-79
2021/04/24 22:51:43;;;;;;;20.05;5.90;;;;;;;6.86;56.78;100862.30;115738;1200;25990;-80
2021/04/24 22:54:13;;;;;;;19.80;4.80;;;;;;;6.84;56.84;100859.96;115772;1202;24616;-80
2021/04/24 22:56:41;;;;;;;17.93;4.93;;;;;;;6.85;56.88;100850.41;115655;1200;26095;-80
2021/04/24 22:59:09;;;;;;;22.30;5.30;;;;;;;6.85;56.90;100853.19;115773;1200;23111;-80
2021/04/24 23:01:39;;;;;;;17.45;4.90;;;;;;;6.85;56.81;100852.42;115708;1199;23142;-80
2021/04/24 23:04:08;;;;;;;20.47;5.03;;;;;;;6.85;56.88;100849.65;115945;1200;27240;-79
2021/04/24 23:06:37;;;;;;;23.30;5.55;;;;;;;6.85;57.19;100855.20;115620;1200;23142;-79
2021/04/24 23:09:06;;;;;;;21.20;6.40;;;;;;;6.84;57.12;100848.86;115576;1200;23174;-79
2021/04/24 23:11:35;;;;;;;19.85;4.65;;;;;;;6.84;57.08;100854.41;115562;1200;23183;-79
2021/04/24 23:14:04;;;;;;;17.70;4.93;;;;;;;6.84;57.06;100854.41;115582;1200;27284;-80
2021/04/24 23:16:35;;;;;;;19.25;4.50;;;;;;;6.85;57.13;100849.65;115619;1199;27221;-79
2021/04/24 23:19:04;;;;;;;17.50;5.37;;;;;;;6.82;57.21;100856.85;115576;1200;23104;-79
2021/04/24 23:21:32;;;;;;;19.40;5.00;;;;;;;6.79;57.21;100857.72;115616;1202;23177;-80
2021/04/24 23:24:01;;;;;;;18.53;4.73;;;;;;;6.76;57.58;100847.50;115634;1200;23153;-79
2021/04/24 23:26:29;;;;;;;18.30;4.60;;;;;;;6.74;57.10;100857.48;115496;1199;23152;-80
2021/04/24 23:29:01;;;;;;;13.87;4.00;;;;;;;6.72;56.92;100851.59;115563;1198;23104;-80
2021/04/24 23:31:29;;;;;;;13.00;3.10;;;;;;;6.70;57.13;100848.47;115418;1200;24509;-80
2021/04/24 23:33:57;;;;;;;17.50;3.43;;;;;;;6.67;57.01;100849.34;115556;1200;24787;-80
2021/04/24 23:36:26;;;;;;;15.30;3.70;;;;;;;6.65;57.05;100846.22;115578;1198;23181;-80
2021/04/24 23:38:55;;;;;;;14.77;3.30;;;;;;;6.63;57.34;100849.44;115458;1199;23179;-80
2021/04/24 23:41:23;;;;;;;13.00;3.40;;;;;;;6.61;57.02;100840.78;115273;1199;23172;-79
2021/04/24 23:43:52;;;;;;;13.50;2.70;;;;;;;6.61;57.08;100851.88;115365;1200;23136;-79
2021/04/24 23:46:20;;;;;;;14.60;2.75;;;;;;;6.58;57.42;100840.88;115324;1199;23172;-80
2021/04/24 23:48:49;;;;;;;13.65;3.45;;;;;;;6.56;57.60;100844.07;115424;1202;27380;-79
2021/04/24 23:51:18;;;;;;;14.60;3.63;;;;;;;6.53;58.21;100842.97;115518;1200;23163;-79
2021/04/24 23:53:46;;;;;;;14.97;3.30;;;;;;;6.51;58.09;100833.52;115641;1198;24921;-79
2021/04/24 23:56:15;;;;;;;18.33;3.47;;;;;;;6.50;58.18;100835.52;115573;1200;26904;-79
2021/04/24 23:58:45;;;;;;;17.00;3.70;;;;;;;6.50;58.21;100832.73;115633;1199;23167;-79
